Strona główna
METAR-TAF:

METAR-TAF

Lotnisko :

Boscombe Down, Anglia

Szerokość geograficzna: 51-10N, Długość geograficzna: 001-45W, wysokość: 124 m

Aktualna obserwacja pogody

Raport powstał 1 godzina i 24 minut temu, godzina 00:50 UTC
Wiatr 16 kt od południowy zachód
Temperatura 6°C
Wilgotność 70%
Ciśnienie 1006 hPa
Widzialność 10 km lub więcej

METAR: EGDM 170050Z AUTO 23016KT 9999 FEW033/// 06/01 Q1006

czas: 02:14 (02:14 UTC)


TAF: brakujący

Obserwacja i prognoza pogody dla ponad 4000 lotnisk (raport METAR i TAF).

Dostępne stacje oznaczono żółtymi i czerwonymi punktami na mapie.

Najedź kursorem aby zobaczyć nazwę stacji.

Kliknij aby zobaczyć obserwacje i prognozy pogody.

Aby zmienić mapę: kliknij na zielony przycisk z czarnym krzyżykiem, aby powiększyć; na zielony przycisk z myślnikiem, aby pomniejszyć; na zielone strzałki, aby przejść do map sąsiednich.


METAR-TAF: